sensor_id;sensor_type;location;lat;lon;timestamp;temperature;humidity
21282;DHT22;10800;53.096;18.328;2023-03-01T00:03:43;-2.70;99.90
21282;DHT22;10800;53.096;18.328;2023-03-01T00:08:49;-2.80;99.90
21282;DHT22;10800;53.096;18.328;2023-03-01T00:13:56;-2.80;99.90
21282;DHT22;10800;53.096;18.328;2023-03-01T00:19:02;-2.90;99.90
21282;DHT22;10800;53.096;18.328;2023-03-01T00:24:08;-3.00;99.90
21282;DHT22;10800;53.096;18.328;2023-03-01T00:29:14;-3.10;99.90
21282;DHT22;10800;53.096;18.328;2023-03-01T00:34:19;-3.10;99.90
21282;DHT22;10800;53.096;18.328;2023-03-01T00:39:25;-3.10;99.90
21282;DHT22;10800;53.096;18.328;2023-03-01T00:44:30;-3.00;99.90
21282;DHT22;10800;53.096;18.328;2023-03-01T00:49:35;-2.90;99.90
21282;DHT22;10800;53.096;18.328;2023-03-01T00:54:41;-3.00;99.90
21282;DHT22;10800;53.096;18.328;2023-03-01T00:59:46;-3.10;99.90
21282;DHT22;10800;53.096;18.328;2023-03-01T01:04:52;-3.20;99.90
21282;DHT22;10800;53.096;18.328;2023-03-01T01:09:57;-3.20;99.90
21282;DHT22;10800;53.096;18.328;2023-03-01T01:15:02;-3.10;99.90
21282;DHT22;10800;53.096;18.328;2023-03-01T01:20:08;-3.20;99.90
21282;DHT22;10800;53.096;18.328;2023-03-01T01:25:14;-3.30;99.90
21282;DHT22;10800;53.096;18.328;2023-03-01T01:30:19;-3.30;99.90
21282;DHT22;10800;53.096;18.328;2023-03-01T01:35:24;-3.40;99.90
21282;DHT22;10800;53.096;18.328;2023-03-01T01:40:30;-3.40;99.90
21282;DHT22;10800;53.096;18.328;2023-03-01T01:45:36;-3.40;99.90
21282;DHT22;10800;53.096;18.328;2023-03-01T01:50:42;-3.40;99.90
21282;DHT22;10800;53.096;18.328;2023-03-01T01:55:51;-3.30;99.90
21282;DHT22;10800;53.096;18.328;2023-03-01T02:00:57;-3.30;99.90
21282;DHT22;10800;53.096;18.328;2023-03-01T02:06:07;-3.30;99.90
21282;DHT22;10800;53.096;18.328;2023-03-01T02:11:13;-3.30;99.90
21282;DHT22;10800;53.096;18.328;2023-03-01T02:16:19;-3.20;99.90
21282;DHT22;10800;53.096;18.328;2023-03-01T02:26:50;-3.30;99.90
21282;DHT22;10800;53.096;18.328;2023-03-01T02:31:59;-3.40;99.90
21282;DHT22;10800;53.096;18.328;2023-03-01T02:37:11;-3.40;99.90
21282;DHT22;10800;53.096;18.328;2023-03-01T02:42:28;-3.40;99.90
21282;DHT22;10800;53.096;18.328;2023-03-01T02:47:25;-3.50;99.90
21282;DHT22;10800;53.096;18.328;2023-03-01T02:57:46;-3.60;99.90
21282;DHT22;10800;53.096;18.328;2023-03-01T03:02:55;-3.60;99.90
21282;DHT22;10800;53.096;18.328;2023-03-01T03:08:03;-3.60;99.90
21282;DHT22;10800;53.096;18.328;2023-03-01T03:13:10;-3.60;99.90
21282;DHT22;10800;53.096;18.328;2023-03-01T03:18:17;-3.60;99.90
21282;DHT22;10800;53.096;18.328;2023-03-01T03:23:23;-3.60;99.90
21282;DHT22;10800;53.096;18.328;2023-03-01T03:28:28;-3.60;99.90
21282;DHT22;10800;53.096;18.328;2023-03-01T03:33:35;-3.70;99.90
21282;DHT22;10800;53.096;18.328;2023-03-01T03:38:41;-3.70;99.90
21282;DHT22;10800;53.096;18.328;2023-03-01T03:43:46;-3.70;99.90
21282;DHT22;10800;53.096;18.328;2023-03-01T03:48:53;-3.70;99.90
21282;DHT22;10800;53.096;18.328;2023-03-01T03:54:00;-3.70;99.90
21282;DHT22;10800;53.096;18.328;2023-03-01T03:59:05;-3.70;99.90
21282;DHT22;10800;53.096;18.328;2023-03-01T04:04:10;-3.60;99.90
21282;DHT22;10800;53.096;18.328;2023-03-01T04:09:16;-3.50;99.90
21282;DHT22;10800;53.096;18.328;2023-03-01T04:14:22;-3.50;99.90
21282;DHT22;10800;53.096;18.328;2023-03-01T04:19:27;-3.50;99.90
21282;DHT22;10800;53.096;18.328;2023-03-01T04:24:33;-3.50;99.90
21282;DHT22;10800;53.096;18.328;2023-03-01T04:29:38;-3.50;99.90
21282;DHT22;10800;53.096;18.328;2023-03-01T04:34:43;-3.50;99.90
21282;DHT22;10800;53.096;18.328;2023-03-01T04:39:48;-3.60;99.90
21282;DHT22;10800;53.096;18.328;2023-03-01T04:44:53;-3.60;99.90
21282;DHT22;10800;53.096;18.328;2023-03-01T04:50:00;-3.60;99.90
21282;DHT22;10800;53.096;18.328;2023-03-01T04:55:08;-3.50;99.90
21282;DHT22;10800;53.096;18.328;2023-03-01T05:00:14;-3.50;99.90
21282;DHT22;10800;53.096;18.328;2023-03-01T05:05:28;-3.50;99.90
21282;DHT22;10800;53.096;18.328;2023-03-01T05:10:35;-3.50;99.90
21282;DHT22;10800;53.096;18.328;2023-03-01T05:15:42;-3.50;99.90
21282;DHT22;10800;53.096;18.328;2023-03-01T05:20:48;-3.50;99.90
21282;DHT22;10800;53.096;18.328;2023-03-01T05:25:53;-3.50;99.90
21282;DHT22;10800;53.096;18.328;2023-03-01T05:31:00;-3.50;99.90
21282;DHT22;10800;53.096;18.328;2023-03-01T05:36:07;-3.40;99.90
21282;DHT22;10800;53.096;18.328;2023-03-01T05:41:15;-3.40;99.90
21282;DHT22;10800;53.096;18.328;2023-03-01T05:46:21;-3.20;99.90
21282;DHT22;10800;53.096;18.328;2023-03-01T05:51:28;-3.10;99.90
21282;DHT22;10800;53.096;18.328;2023-03-01T05:56:35;-3.10;99.90
21282;DHT22;10800;53.096;18.328;2023-03-01T06:01:41;-3.00;99.90
21282;DHT22;10800;53.096;18.328;2023-03-01T06:06:46;-3.00;99.90
21282;DHT22;10800;53.096;18.328;2023-03-01T06:11:52;-2.90;99.90
21282;DHT22;10800;53.096;18.328;2023-03-01T06:16:58;-2.80;99.90
21282;DHT22;10800;53.096;18.328;2023-03-01T06:22:03;-2.70;99.90
21282;DHT22;10800;53.096;18.328;2023-03-01T06:27:10;-2.60;99.90
21282;DHT22;10800;53.096;18.328;2023-03-01T06:32:15;-2.50;99.90
21282;DHT22;10800;53.096;18.328;2023-03-01T06:37:20;-2.40;99.90
21282;DHT22;10800;53.096;18.328;2023-03-01T06:42:26;-2.20;99.90
21282;DHT22;10800;53.096;18.328;2023-03-01T06:47:31;-2.00;99.90
21282;DHT22;10800;53.096;18.328;2023-03-01T06:52:37;-1.80;99.90
21282;DHT22;10800;53.096;18.328;2023-03-01T06:57:43;-1.60;99.90
21282;DHT22;10800;53.096;18.328;2023-03-01T07:02:48;-1.40;99.90
21282;DHT22;10800;53.096;18.328;2023-03-01T07:07:54;-1.20;99.90
21282;DHT22;10800;53.096;18.328;2023-03-01T07:13:01;-0.70;99.90
21282;DHT22;10800;53.096;18.328;2023-03-01T07:18:06;-0.20;99.90
21282;DHT22;10800;53.096;18.328;2023-03-01T07:23:11;0.30;99.90
21282;DHT22;10800;53.096;18.328;2023-03-01T07:28:17;0.90;99.90
21282;DHT22;10800;53.096;18.328;2023-03-01T07:33:22;1.30;99.90
21282;DHT22;10800;53.096;18.328;2023-03-01T07:38:28;1.70;99.90
21282;DHT22;10800;53.096;18.328;2023-03-01T07:43:34;2.20;99.90
21282;DHT22;10800;53.096;18.328;2023-03-01T07:48:39;2.60;99.90
21282;DHT22;10800;53.096;18.328;2023-03-01T07:53:48;3.10;99.90
21282;DHT22;10800;53.096;18.328;2023-03-01T07:58:53;3.50;99.90
21282;DHT22;10800;53.096;18.328;2023-03-01T08:03:59;3.80;99.90
21282;DHT22;10800;53.096;18.328;2023-03-01T08:09:04;4.20;99.90
21282;DHT22;10800;53.096;18.328;2023-03-01T08:14:10;4.60;99.90
21282;DHT22;10800;53.096;18.328;2023-03-01T08:19:15;4.90;99.90
21282;DHT22;10800;53.096;18.328;2023-03-01T08:24:21;5.10;99.80
21282;DHT22;10800;53.096;18.328;2023-03-01T08:29:27;5.50;99.50
21282;DHT22;10800;53.096;18.328;2023-03-01T08:34:33;5.80;98.40
21282;DHT22;10800;53.096;18.328;2023-03-01T08:39:39;6.40;96.30
21282;DHT22;10800;53.096;18.328;2023-03-01T08:44:45;6.60;95.00
21282;DHT22;10800;53.096;18.328;2023-03-01T08:49:50;7.00;94.20
21282;DHT22;10800;53.096;18.328;2023-03-01T08:54:56;7.30;92.40
21282;DHT22;10800;53.096;18.328;2023-03-01T09:00:03;7.90;92.70
21282;DHT22;10800;53.096;18.328;2023-03-01T09:05:10;8.70;91.90
21282;DHT22;10800;53.096;18.328;2023-03-01T09:10:16;9.20;87.50
21282;DHT22;10800;53.096;18.328;2023-03-01T09:15:27;9.30;87.80
21282;DHT22;10800;53.096;18.328;2023-03-01T09:20:39;9.50;85.50
21282;DHT22;10800;53.096;18.328;2023-03-01T09:25:45;10.20;86.00
21282;DHT22;10800;53.096;18.328;2023-03-01T09:30:50;10.30;81.90
21282;DHT22;10800;53.096;18.328;2023-03-01T09:36:06;10.50;83.50
21282;DHT22;10800;53.096;18.328;2023-03-01T09:42:03;9.90;84.50
21282;DHT22;10800;53.096;18.328;2023-03-01T09:46:33;9.70;84.30
21282;DHT22;10800;53.096;18.328;2023-03-01T09:51:39;9.90;84.20
21282;DHT22;10800;53.096;18.328;2023-03-01T10:02:38;10.40;82.80
21282;DHT22;10800;53.096;18.328;2023-03-01T10:07:45;10.70;82.50
21282;DHT22;10800;53.096;18.328;2023-03-01T10:12:53;11.00;81.30
21282;DHT22;10800;53.096;18.328;2023-03-01T10:18:09;11.10;81.70
21282;DHT22;10800;53.096;18.328;2023-03-01T10:23:14;11.60;80.10
21282;DHT22;10800;53.096;18.328;2023-03-01T10:33:52;12.00;78.40
21282;DHT22;10800;53.096;18.328;2023-03-01T10:39:01;12.10;77.00
21282;DHT22;10800;53.096;18.328;2023-03-01T10:44:10;12.00;78.80
21282;DHT22;10800;53.096;18.328;2023-03-01T10:49:22;11.70;78.90
21282;DHT22;10800;53.096;18.328;2023-03-01T10:54:32;11.50;80.70
21282;DHT22;10800;53.096;18.328;2023-03-01T10:59:39;11.00;81.70
21282;DHT22;10800;53.096;18.328;2023-03-01T11:10:18;10.90;83.50
21282;DHT22;10800;53.096;18.328;2023-03-01T11:15:27;11.00;83.00
21282;DHT22;10800;53.096;18.328;2023-03-01T11:20:36;11.10;83.50
21282;DHT22;10800;53.096;18.328;2023-03-01T11:25:51;11.40;83.10
21282;DHT22;10800;53.096;18.328;2023-03-01T11:41:34;11.20;83.80
21282;DHT22;10800;53.096;18.328;2023-03-01T11:46:57;11.30;82.20
21282;DHT22;10800;53.096;18.328;2023-03-01T11:52:24;11.20;81.50
21282;DHT22;10800;53.096;18.328;2023-03-01T12:18:47;11.50;77.50
21282;DHT22;10800;53.096;18.328;2023-03-01T12:24:10;11.00;77.70
21282;DHT22;10800;53.096;18.328;2023-03-01T12:40:13;11.30;77.00
21282;DHT22;10800;53.096;18.328;2023-03-01T12:50:44;11.20;75.70
21282;DHT22;10800;53.096;18.328;2023-03-01T12:55:53;10.90;76.30
21282;DHT22;10800;53.096;18.328;2023-03-01T13:06:45;10.50;78.20
21282;DHT22;10800;53.096;18.328;2023-03-01T13:11:51;10.50;78.10
21282;DHT22;10800;53.096;18.328;2023-03-01T13:16:56;10.60;81.10
21282;DHT22;10800;53.096;18.328;2023-03-01T13:22:25;10.80;80.20
21282;DHT22;10800;53.096;18.328;2023-03-01T13:27:11;10.60;80.60
21282;DHT22;10800;53.096;18.328;2023-03-01T13:37:38;10.40;79.30
21282;DHT22;10800;53.096;18.328;2023-03-01T13:42:45;10.20;81.00
21282;DHT22;10800;53.096;18.328;2023-03-01T13:48:16;10.10;82.70
21282;DHT22;10800;53.096;18.328;2023-03-01T13:53:24;10.10;81.00
21282;DHT22;10800;53.096;18.328;2023-03-01T13:59:04;10.10;82.20
21282;DHT22;10800;53.096;18.328;2023-03-01T14:09:31;10.20;82.40
21282;DHT22;10800;53.096;18.328;2023-03-01T14:20:23;9.90;82.30
21282;DHT22;10800;53.096;18.328;2023-03-01T14:25:32;9.90;84.20
21282;DHT22;10800;53.096;18.328;2023-03-01T14:30:48;9.90;82.80
21282;DHT22;10800;53.096;18.328;2023-03-01T14:41:22;9.60;84.50
21282;DHT22;10800;53.096;18.328;2023-03-01T14:46:28;9.50;84.60
21282;DHT22;10800;53.096;18.328;2023-03-01T14:51:42;9.40;84.50
21282;DHT22;10800;53.096;18.328;2023-03-01T14:56:58;9.30;84.30
21282;DHT22;10800;53.096;18.328;2023-03-01T15:02:01;9.10;84.10
21282;DHT22;10800;53.096;18.328;2023-03-01T15:07:09;9.00;85.20
21282;DHT22;10800;53.096;18.328;2023-03-01T15:17:36;8.80;85.50
21282;DHT22;10800;53.096;18.328;2023-03-01T15:22:44;8.60;86.60
21282;DHT22;10800;53.096;18.328;2023-03-01T15:27:53;8.50;87.30
21282;DHT22;10800;53.096;18.328;2023-03-01T15:38:49;8.20;88.30
21282;DHT22;10800;53.096;18.328;2023-03-01T15:43:47;8.10;89.20
21282;DHT22;10800;53.096;18.328;2023-03-01T15:49:02;8.00;90.00
21282;DHT22;10800;53.096;18.328;2023-03-01T15:54:05;7.80;90.40
21282;DHT22;10800;53.096;18.328;2023-03-01T15:59:11;7.60;91.10
21282;DHT22;10800;53.096;18.328;2023-03-01T16:04:19;7.40;91.70
21282;DHT22;10800;53.096;18.328;2023-03-01T16:09:27;7.20;92.70
21282;DHT22;10800;53.096;18.328;2023-03-01T16:14:32;7.00;93.20
21282;DHT22;10800;53.096;18.328;2023-03-01T16:19:38;6.80;93.60
21282;DHT22;10800;53.096;18.328;2023-03-01T16:24:45;6.50;94.30
21282;DHT22;10800;53.096;18.328;2023-03-01T16:29:50;6.20;95.10
21282;DHT22;10800;53.096;18.328;2023-03-01T16:34:55;6.00;96.30
21282;DHT22;10800;53.096;18.328;2023-03-01T16:40:02;5.80;98.00
21282;DHT22;10800;53.096;18.328;2023-03-01T16:45:09;5.60;99.60
21282;DHT22;10800;53.096;18.328;2023-03-01T16:50:16;5.40;99.90
21282;DHT22;10800;53.096;18.328;2023-03-01T16:55:21;5.10;99.90
21282;DHT22;10800;53.096;18.328;2023-03-01T17:00:27;4.90;99.90
21282;DHT22;10800;53.096;18.328;2023-03-01T17:05:32;4.80;99.90
21282;DHT22;10800;53.096;18.328;2023-03-01T17:10:38;4.70;99.90
21282;DHT22;10800;53.096;18.328;2023-03-01T17:15:43;4.40;99.90
21282;DHT22;10800;53.096;18.328;2023-03-01T17:20:48;4.30;99.90
21282;DHT22;10800;53.096;18.328;2023-03-01T17:25:54;4.20;99.90
21282;DHT22;10800;53.096;18.328;2023-03-01T17:31:00;3.90;99.90
21282;DHT22;10800;53.096;18.328;2023-03-01T17:36:07;3.70;99.90
21282;DHT22;10800;53.096;18.328;2023-03-01T17:41:12;3.50;99.90
21282;DHT22;10800;53.096;18.328;2023-03-01T17:46:19;3.20;99.90
21282;DHT22;10800;53.096;18.328;2023-03-01T17:51:25;3.00;99.90
21282;DHT22;10800;53.096;18.328;2023-03-01T17:56:30;2.90;99.90
21282;DHT22;10800;53.096;18.328;2023-03-01T18:01:39;2.80;99.90
21282;DHT22;10800;53.096;18.328;2023-03-01T18:06:46;2.70;99.90
21282;DHT22;10800;53.096;18.328;2023-03-01T18:11:51;2.50;99.90
21282;DHT22;10800;53.096;18.328;2023-03-01T18:16:57;2.40;99.90
21282;DHT22;10800;53.096;18.328;2023-03-01T18:22:02;2.40;99.90
21282;DHT22;10800;53.096;18.328;2023-03-01T18:27:08;2.30;99.90
21282;DHT22;10800;53.096;18.328;2023-03-01T18:32:14;2.10;99.90
21282;DHT22;10800;53.096;18.328;2023-03-01T18:37:19;2.10;99.90
21282;DHT22;10800;53.096;18.328;2023-03-01T18:42:26;2.10;99.90
21282;DHT22;10800;53.096;18.328;2023-03-01T18:47:32;1.90;99.90
21282;DHT22;10800;53.096;18.328;2023-03-01T18:52:37;1.80;99.90
21282;DHT22;10800;53.096;18.328;2023-03-01T18:57:42;1.70;99.90
21282;DHT22;10800;53.096;18.328;2023-03-01T19:02:47;1.50;99.90
21282;DHT22;10800;53.096;18.328;2023-03-01T19:07:53;1.40;99.90
21282;DHT22;10800;53.096;18.328;2023-03-01T19:12:58;1.30;99.90
21282;DHT22;10800;53.096;18.328;2023-03-01T19:18:04;1.20;99.90
21282;DHT22;10800;53.096;18.328;2023-03-01T19:23:09;1.10;99.90
21282;DHT22;10800;53.096;18.328;2023-03-01T19:28:16;1.00;99.90
21282;DHT22;10800;53.096;18.328;2023-03-01T19:33:21;0.90;99.90
21282;DHT22;10800;53.096;18.328;2023-03-01T19:38:29;0.90;99.90
21282;DHT22;10800;53.096;18.328;2023-03-01T19:43:34;0.80;99.90
21282;DHT22;10800;53.096;18.328;2023-03-01T19:48:40;0.80;99.90
21282;DHT22;10800;53.096;18.328;2023-03-01T19:53:47;0.70;99.90
21282;DHT22;10800;53.096;18.328;2023-03-01T19:58:52;0.60;99.90
21282;DHT22;10800;53.096;18.328;2023-03-01T20:04:03;0.60;99.90
21282;DHT22;10800;53.096;18.328;2023-03-01T20:09:09;0.40;99.90
21282;DHT22;10800;53.096;18.328;2023-03-01T20:14:17;0.40;99.90
21282;DHT22;10800;53.096;18.328;2023-03-01T20:19:24;0.40;99.90
21282;DHT22;10800;53.096;18.328;2023-03-01T20:24:30;0.20;99.90
21282;DHT22;10800;53.096;18.328;2023-03-01T20:29:35;0.20;99.90
21282;DHT22;10800;53.096;18.328;2023-03-01T20:34:40;0.20;99.90
21282;DHT22;10800;53.096;18.328;2023-03-01T20:39:46;0.10;99.90
21282;DHT22;10800;53.096;18.328;2023-03-01T20:44:51;0.00;99.90
21282;DHT22;10800;53.096;18.328;2023-03-01T20:49:56;0.00;99.90
21282;DHT22;10800;53.096;18.328;2023-03-01T20:55:03;-0.10;99.90
21282;DHT22;10800;53.096;18.328;2023-03-01T21:00:09;-0.10;99.90
21282;DHT22;10800;53.096;18.328;2023-03-01T21:05:14;-0.20;99.90
21282;DHT22;10800;53.096;18.328;2023-03-01T21:10:19;-0.20;99.90
21282;DHT22;10800;53.096;18.328;2023-03-01T21:15:25;-0.20;99.90
21282;DHT22;10800;53.096;18.328;2023-03-01T21:20:32;-0.30;99.90
21282;DHT22;10800;53.096;18.328;2023-03-01T21:25:37;-0.30;99.90
21282;DHT22;10800;53.096;18.328;2023-03-01T21:30:42;-0.40;99.90
21282;DHT22;10800;53.096;18.328;2023-03-01T21:35:47;-0.40;99.90
21282;DHT22;10800;53.096;18.328;2023-03-01T21:40:53;-0.50;99.90
21282;DHT22;10800;53.096;18.328;2023-03-01T21:46:07;-0.60;99.90
21282;DHT22;10800;53.096;18.328;2023-03-01T21:51:15;-0.70;99.90
21282;DHT22;10800;53.096;18.328;2023-03-01T21:56:23;-0.80;99.90
21282;DHT22;10800;53.096;18.328;2023-03-01T22:01:28;-0.80;99.90
21282;DHT22;10800;53.096;18.328;2023-03-01T22:06:36;-0.90;99.90
21282;DHT22;10800;53.096;18.328;2023-03-01T22:11:47;-0.80;99.90
21282;DHT22;10800;53.096;18.328;2023-03-01T22:16:52;-0.80;99.90
21282;DHT22;10800;53.096;18.328;2023-03-01T22:21:58;-0.80;99.90
21282;DHT22;10800;53.096;18.328;2023-03-01T22:27:03;-0.80;99.90
21282;DHT22;10800;53.096;18.328;2023-03-01T22:32:08;-0.70;99.90
21282;DHT22;10800;53.096;18.328;2023-03-01T22:37:14;-0.50;99.90
21282;DHT22;10800;53.096;18.328;2023-03-01T22:42:19;-0.40;99.90
21282;DHT22;10800;53.096;18.328;2023-03-01T22:47:24;-0.40;99.90
21282;DHT22;10800;53.096;18.328;2023-03-01T22:52:30;-0.40;99.90
21282;DHT22;10800;53.096;18.328;2023-03-01T22:57:35;-0.40;99.90
21282;DHT22;10800;53.096;18.328;2023-03-01T23:02:40;-0.60;99.90
21282;DHT22;10800;53.096;18.328;2023-03-01T23:07:46;-0.60;99.90
21282;DHT22;10800;53.096;18.328;2023-03-01T23:12:54;-0.50;99.90
21282;DHT22;10800;53.096;18.328;2023-03-01T23:18:00;-0.40;99.90
21282;DHT22;10800;53.096;18.328;2023-03-01T23:23:05;-0.20;99.90
21282;DHT22;10800;53.096;18.328;2023-03-01T23:28:10;-0.10;99.90
21282;DHT22;10800;53.096;18.328;2023-03-01T23:33:16;-0.10;99.90
21282;DHT22;10800;53.096;18.328;2023-03-01T23:38:21;0.10;99.90
21282;DHT22;10800;53.096;18.328;2023-03-01T23:43:26;0.10;99.90
21282;DHT22;10800;53.096;18.328;2023-03-01T23:48:32;0.20;99.90
21282;DHT22;10800;53.096;18.328;2023-03-01T23:53:42;0.30;99.90
21282;DHT22;10800;53.096;18.328;2023-03-01T23:58:46;0.40;99.90
